Time;durP1;ratioP1;P1;durP2;ratioP2;P2;SDS_P1;SDS_P2;PMS_P1;PMS_P2;Temp;Humidity;BMP_temperature;BMP_pressure;BME280_temperature;BME280_humidity;BME280_pressure;Samples;Min_cycle;Max_cycle;Signal;HPM_P1;HPM_P2
2022/08/10 00:00:30;;;;;;;5.57;2.75;;;19.40;99.90;;;;;;5026856;28;20025;-60
2022/08/10 00:02:58;;;;;;;4.32;2.58;;;19.40;99.90;;;;;;5029513;28;20105;-61
2022/08/10 00:05:25;;;;;;;3.55;2.00;;;19.30;99.90;;;;;;5027512;28;20049;-60
2022/08/10 00:07:51;;;;;;;5.95;2.65;;;19.30;99.90;;;;;;5020865;28;20083;-60
2022/08/10 00:10:20;;;;;;;3.65;2.50;;;19.20;99.90;;;;;;5025412;28;20021;-58
2022/08/10 00:12:46;;;;;;;4.35;2.10;;;19.20;99.90;;;;;;5028451;28;20242;-59
2022/08/10 00:15:15;;;;;;;2.95;2.42;;;19.20;99.90;;;;;;5026527;28;20391;-59
2022/08/10 00:17:41;;;;;;;4.95;3.15;;;19.20;99.90;;;;;;5019766;28;20025;-61
2022/08/10 00:20:08;;;;;;;7.28;2.15;;;19.10;99.90;;;;;;5026695;28;20496;-59
2022/08/10 00:22:34;;;;;;;5.85;2.67;;;19.00;99.90;;;;;;5022591;28;20553;-60
2022/08/10 00:25:00;;;;;;;6.15;3.00;;;18.90;99.90;;;;;;5024758;28;20500;-61
2022/08/10 00:27:27;;;;;;;3.95;2.88;;;18.90;99.90;;;;;;5025258;28;20038;-61
2022/08/10 00:29:53;;;;;;;7.03;2.55;;;18.80;99.90;;;;;;5029193;28;20036;-60
2022/08/10 00:32:19;;;;;;;4.95;3.05;;;18.70;99.90;;;;;;5027554;28;20060;-60
2022/08/10 00:34:45;;;;;;;7.72;3.35;;;18.60;99.90;;;;;;5028880;28;20056;-60
2022/08/10 00:37:12;;;;;;;5.63;2.53;;;18.60;99.90;;;;;;5027464;28;20040;-60
2022/08/10 00:39:38;;;;;;;5.35;2.80;;;18.60;99.90;;;;;;5028977;28;20086;-60
2022/08/10 00:42:06;;;;;;;7.30;2.70;;;18.50;99.90;;;;;;5029475;28;20124;-60
2022/08/10 00:44:32;;;;;;;9.88;2.95;;;18.50;99.90;;;;;;5026636;28;20030;-59
2022/08/10 00:46:59;;;;;;;5.68;2.97;;;18.50;99.90;;;;;;5020960;28;20084;-62
2022/08/10 00:49:26;;;;;;;4.18;3.08;;;18.50;99.90;;;;;;5024717;28;20026;-62
2022/08/10 00:51:52;;;;;;;7.53;3.60;;;18.40;99.90;;;;;;5023437;28;20067;-61
2022/08/10 00:54:18;;;;;;;6.88;2.72;;;18.30;99.90;;;;;;5026617;28;20502;-61
2022/08/10 00:56:43;;;;;;;5.90;2.90;;;18.30;99.90;;;;;;5020881;28;20038;-62
2022/08/10 00:59:09;;;;;;;11.80;3.45;;;18.20;99.90;;;;;;5025361;28;20024;-62
2022/08/10 01:01:34;;;;;;;4.78;3.08;;;18.10;99.90;;;;;;5029778;28;20042;-60
2022/08/10 01:04:01;;;;;;;8.20;3.15;;;18.00;99.90;;;;;;5030311;28;20043;-59
2022/08/10 01:06:36;;;;;;;7.00;2.70;;;18.00;99.90;;;;;;5030300;28;20036;-60
2022/08/10 01:09:12;;;;;;;8.13;3.72;;;18.00;99.90;;;;;;5023589;28;20029;-60
2022/08/10 01:11:47;;;;;;;5.50;3.08;;;17.90;99.90;;;;;;5030343;28;20025;-60
2022/08/10 01:14:36;;;;;;;12.80;3.03;;;17.80;99.90;;;;;;5033251;28;20044;-60
2022/08/10 01:17:04;;;;;;;4.55;2.70;;;17.70;99.90;;;;;;5027256;28;20033;-60
2022/08/10 01:19:57;;;;;;;4.57;3.10;;;17.70;99.90;;;;;;5032541;28;20057;-60
2022/08/10 01:22:31;;;;;;;3.50;3.03;;;17.70;99.90;;;;;;5036647;28;20460;-61
2022/08/10 01:25:18;;;;;;;5.75;3.10;;;17.60;99.90;;;;;;5028496;28;20067;-60
2022/08/10 01:28:18;;;;;;;6.38;3.45;;;17.70;99.90;;;;;;5029625;28;20575;-62
2022/08/10 01:30:46;;;;;;;3.80;2.65;;;17.70;99.90;;;;;;5032640;28;20534;-61
2022/08/10 01:33:17;;;;;;;5.43;3.40;;;17.70;99.90;;;;;;5028595;28;20029;-61
2022/08/10 01:35:48;;;;;;;4.45;2.78;;;17.60;99.90;;;;;;5026970;28;20025;-61
2022/08/10 01:38:22;;;;;;;6.05;3.40;;;17.60;99.90;;;;;;5023039;28;20029;-62
2022/08/10 01:40:50;;;;;;;;;;;17.50;99.90;;;;;;5028424;28;20038;-62
2022/08/10 01:43:18;;;;;;;6.03;2.58;;;17.50;99.90;;;;;;5031791;28;19933;-62
2022/08/10 01:45:48;;;;;;;5.47;2.90;;;17.50;99.90;;;;;;5028248;28;20029;-62
2022/08/10 01:48:33;;;;;;;5.30;2.97;;;17.40;99.90;;;;;;5027512;28;20491;-60
2022/08/10 01:51:20;;;;;;;5.07;3.50;;;17.40;99.90;;;;;;5028453;28;20049;-62
2022/08/10 01:54:01;;;;;;;8.32;3.40;;;17.50;99.90;;;;;;5029466;28;20056;-61
2022/08/10 01:56:32;;;;;;;5.30;3.20;;;17.50;99.90;;;;;;5028410;28;20113;-62
2022/08/10 01:59:06;;;;;;;4.53;3.10;;;17.50;99.90;;;;;;5007803;28;20025;-59
2022/08/10 02:01:38;;;;;;;3.73;3.27;;;17.50;99.90;;;;;;5025783;28;20056;-59
2022/08/10 02:04:08;;;;;;;6.72;3.80;;;17.50;99.90;;;;;;5031924;28;20384;-60
2022/08/10 02:06:53;;;;;;;4.57;3.35;;;17.50;99.90;;;;;;5008304;28;20068;-61
2022/08/10 02:09:29;;;;;;;;;;;17.40;99.90;;;;;;5023729;28;20041;-61
2022/08/10 02:12:00;;;;;;;6.53;3.38;;;17.40;99.90;;;;;;5005042;28;19909;-61
2022/08/10 02:14:31;;;;;;;4.22;3.60;;;17.30;99.90;;;;;;5027506;28;20052;-60
2022/08/10 02:16:59;;;;;;;7.03;3.88;;;17.30;99.90;;;;;;5010122;28;20095;-60
2022/08/10 02:19:28;;;;;;;7.88;3.92;;;17.10;99.90;;;;;;5029199;28;20029;-61
2022/08/10 02:21:55;;;;;;;5.35;3.17;;;17.10;99.90;;;;;;5028635;28;20041;-60
2022/08/10 02:24:23;;;;;;;10.40;4.07;;;17.00;99.90;;;;;;5028822;28;20033;-61
2022/08/10 02:26:49;;;;;;;10.23;4.32;;;16.90;99.90;;;;;;5028701;28;20088;-60
2022/08/10 02:29:16;;;;;;;7.95;3.80;;;16.90;99.90;;;;;;5029429;28;20091;-60
2022/08/10 02:31:43;;;;;;;5.07;3.97;;;16.80;99.90;;;;;;5026205;28;20820;-61
2022/08/10 02:34:11;;;;;;;6.65;4.03;;;16.70;99.90;;;;;;5022618;28;20033;-62
2022/08/10 02:36:46;;;;;;;6.00;3.38;;;16.70;99.90;;;;;;5023465;28;21835;-60
2022/08/10 02:39:13;;;;;;;6.07;4.13;;;16.60;99.90;;;;;;5027060;28;20100;-59
2022/08/10 02:41:49;;;;;;;5.63;3.88;;;16.70;99.90;;;;;;5022489;28;20212;-60
2022/08/10 02:44:23;;;;;;;7.05;3.83;;;16.70;99.90;;;;;;5027342;28;20541;-61
2022/08/10 02:46:52;;;;;;;;;;;16.70;99.90;;;;;;5020987;28;20108;-61
2022/08/10 02:49:22;;;;;;;10.38;4.55;;;16.70;99.90;;;;;;5026577;28;19983;-61
2022/08/10 02:52:00;;;;;;;4.80;4.10;;;16.70;99.90;;;;;;5023440;28;21012;-61
2022/08/10 02:54:31;;;;;;;7.00;3.78;;;16.70;99.90;;;;;;5022227;28;20032;-61
2022/08/10 02:57:18;;;;;;;6.30;4.22;;;16.70;99.90;;;;;;5025271;28;20033;-61
2022/08/10 02:59:53;;;;;;;6.55;3.70;;;16.70;99.90;;;;;;5024720;28;20030;-60
2022/08/10 03:02:27;;;;;;;7.00;4.18;;;16.60;99.90;;;;;;5023829;28;20117;-61
2022/08/10 03:04:59;;;;;;;9.13;4.47;;;16.50;99.90;;;;;;5024587;28;20021;-62
2022/08/10 03:07:28;;;;;;;5.68;4.25;;;16.50;99.90;;;;;;5028410;28;20403;-60
2022/08/10 03:09:54;;;;;;;6.80;4.03;;;16.40;99.90;;;;;;5030160;28;20368;-60
2022/08/10 03:12:21;;;;;;;6.35;4.20;;;16.30;99.90;;;;;;5030080;28;20036;-61
2022/08/10 03:14:48;;;;;;;6.50;4.75;;;16.20;99.90;;;;;;5030381;28;20067;-61
2022/08/10 03:17:15;;;;;;;5.72;4.20;;;16.20;99.90;;;;;;5027725;28;20026;-60
2022/08/10 03:19:42;;;;;;;8.55;3.88;;;16.10;99.90;;;;;;5029130;28;20104;-61
2022/08/10 03:22:08;;;;;;;9.25;4.90;;;16.10;99.90;;;;;;5030773;28;20090;-61
2022/08/10 03:24:34;;;;;;;6.97;4.53;;;16.10;99.90;;;;;;5033943;28;20037;-61
2022/08/10 03:27:01;;;;;;;5.35;3.95;;;16.00;99.90;;;;;;5027267;28;20037;-60
2022/08/10 03:29:27;;;;;;;9.90;4.43;;;16.00;99.90;;;;;;5027001;28;20102;-61
2022/08/10 03:31:55;;;;;;;7.50;4.55;;;16.00;99.90;;;;;;5026091;28;20021;-61
2022/08/10 03:34:21;;;;;;;9.85;4.05;;;15.90;99.90;;;;;;5029130;28;20028;-61
2022/08/10 03:36:47;;;;;;;9.80;3.95;;;15.90;99.90;;;;;;5028981;28;20025;-60
2022/08/10 03:39:13;;;;;;;7.30;4.40;;;15.90;99.90;;;;;;5027655;28;20116;-59
2022/08/10 03:41:47;;;;;;;7.00;4.60;;;15.90;99.90;;;;;;5028630;28;20025;-60
2022/08/10 03:44:17;;;;;;;7.78;4.68;;;15.80;99.90;;;;;;5025839;28;20037;-61
2022/08/10 03:46:45;;;;;;;6.45;4.47;;;15.90;99.90;;;;;;5037090;22;20045;-60
2022/08/10 03:49:13;;;;;;;7.82;4.28;;;15.80;99.90;;;;;;5006021;28;20080;-61
2022/08/10 03:51:39;;;;;;;6.72;4.68;;;15.70;99.90;;;;;;5008314;28;20022;-62
2022/08/10 03:54:06;;;;;;;10.25;4.85;;;15.70;99.90;;;;;;5009021;28;20103;-61
2022/08/10 03:56:33;;;;;;;9.20;4.85;;;15.70;99.90;;;;;;5013245;28;20036;-61
2022/08/10 03:59:00;;;;;;;7.50;4.72;;;15.70;99.90;;;;;;5012457;28;20037;-62
2022/08/10 04:01:27;;;;;;;6.55;4.45;;;15.70;99.90;;;;;;5012031;28;20037;-60
2022/08/10 04:03:53;;;;;;;6.25;4.60;;;15.70;99.90;;;;;;5007895;28;20026;-62
2022/08/10 04:06:19;;;;;;;8.48;5.18;;;15.70;99.90;;;;;;5014273;28;20076;-61
2022/08/10 04:08:45;;;;;;;11.35;4.90;;;15.70;99.90;;;;;;5009028;28;20030;-60
2022/08/10 04:11:11;;;;;;;8.68;4.68;;;15.70;99.90;;;;;;5014466;28;20542;-63
2022/08/10 04:13:37;;;;;;;8.40;5.25;;;15.60;99.90;;;;;;5012181;28;20030;-62
2022/08/10 04:16:05;;;;;;;7.75;4.43;;;15.70;99.90;;;;;;5009149;28;20395;-62
2022/08/10 04:18:31;;;;;;;7.95;4.70;;;15.60;99.90;;;;;;5010122;28;20124;-59
2022/08/10 04:21:08;;;;;;;7.53;5.10;;;15.50;99.90;;;;;;5012325;28;20034;-60
2022/08/10 04:23:39;;;;;;;6.30;4.68;;;15.50;99.90;;;;;;5009888;28;20480;-62
2022/08/10 04:26:05;;;;;;;9.57;4.45;;;15.50;99.90;;;;;;5010106;28;20469;-61
2022/08/10 04:28:31;;;;;;;8.90;4.80;;;15.50;99.90;;;;;;5009817;28;20534;-60
2022/08/10 04:31:00;;;;;;;6.13;4.63;;;15.50;99.90;;;;;;5009231;28;20058;-60
2022/08/10 04:33:27;;;;;;;8.75;5.15;;;15.50;99.90;;;;;;5005068;28;20084;-61
2022/08/10 04:35:54;;;;;;;7.90;4.80;;;15.40;99.90;;;;;;5008948;28;20531;-61
2022/08/10 04:38:22;;;;;;;8.85;4.30;;;15.50;99.90;;;;;;5014111;28;20052;-62
2022/08/10 04:40:47;;;;;;;6.72;5.03;;;15.50;99.90;;;;;;5016508;28;20029;-62
2022/08/10 04:43:13;;;;;;;8.63;5.13;;;15.50;99.90;;;;;;5012719;28;20088;-62
2022/08/10 04:45:40;;;;;;;11.38;4.97;;;15.50;99.90;;;;;;5014001;28;20372;-61
2022/08/10 04:48:06;;;;;;;13.68;5.22;;;15.60;99.90;;;;;;5010878;28;20602;-61
2022/08/10 04:50:31;;;;;;;8.50;5.13;;;15.60;99.90;;;;;;5015663;28;20025;-60
2022/08/10 04:52:57;;;;;;;8.50;5.18;;;15.60;99.90;;;;;;5013452;28;20099;-58
2022/08/10 04:55:23;;;;;;;7.13;5.60;;;15.60;99.90;;;;;;5011541;28;20030;-60
2022/08/10 04:57:48;;;;;;;7.53;5.53;;;15.70;99.90;;;;;;5012483;28;20096;-58
2022/08/10 05:00:14;;;;;;;6.78;4.63;;;15.70;99.90;;;;;;5012997;28;20037;-58
2022/08/10 05:02:39;;;;;;;9.05;5.15;;;15.80;99.90;;;;;;5009122;28;20123;-58
2022/08/10 05:05:06;;;;;;;9.25;4.93;;;15.80;99.90;;;;;;5014027;28;20056;-60
2022/08/10 05:07:31;;;;;;;12.05;5.50;;;15.80;99.90;;;;;;5015990;28;20030;-60
2022/08/10 05:09:57;;;;;;;8.60;5.45;;;15.80;99.90;;;;;;5013858;28;20022;-60
2022/08/10 05:12:22;;;;;;;13.68;5.57;;;15.90;99.90;;;;;;5012230;28;20056;-58
2022/08/10 05:14:50;;;;;;;16.38;5.50;;;16.00;99.90;;;;;;5018823;28;20117;-59
2022/08/10 05:17:16;;;;;;;8.05;4.95;;;16.00;99.90;;;;;;5017807;28;20443;-58
2022/08/10 05:19:42;;;;;;;10.68;4.80;;;16.10;99.90;;;;;;5008060;28;20029;-60
2022/08/10 05:22:07;;;;;;;11.38;5.55;;;16.10;99.90;;;;;;5015512;28;20064;-59
2022/08/10 05:24:33;;;;;;;10.27;5.45;;;16.20;99.90;;;;;;5012845;28;20034;-58
2022/08/10 05:26:59;;;;;;;7.20;4.90;;;16.20;99.90;;;;;;5013577;28;20029;-58
2022/08/10 05:29:24;;;;;;;7.90;5.15;;;16.30;99.90;;;;;;5012967;28;20060;-60
2022/08/10 05:31:50;;;;;;;10.13;5.20;;;16.30;99.90;;;;;;5018231;28;20087;-55
2022/08/10 05:34:16;;;;;;;12.07;5.55;;;16.40;99.90;;;;;;5012834;28;20049;-57
2022/08/10 05:36:42;;;;;;;9.52;5.03;;;16.50;99.90;;;;;;4992744;28;20594;-54
2022/08/10 05:39:10;;;;;;;9.88;5.03;;;16.60;99.90;;;;;;5009284;28;20034;-55
2022/08/10 05:41:36;;;;;;;10.43;5.00;;;16.70;99.90;;;;;;5011364;28;20084;-55
2022/08/10 05:44:02;;;;;;;8.80;5.28;;;16.70;99.90;;;;;;5013954;28;20538;-54
2022/08/10 05:46:28;;;;;;;13.10;5.00;;;16.80;99.90;;;;;;5017292;28;20030;-55
2022/08/10 05:48:53;;;;;;;6.63;4.93;;;16.90;99.90;;;;;;5009967;28;20033;-58
2022/08/10 05:51:19;;;;;;;11.18;4.93;;;17.00;99.90;;;;;;5011875;28;20029;-55
2022/08/10 05:53:45;;;;;;;9.43;5.18;;;17.10;99.90;;;;;;5011383;28;20034;-55
2022/08/10 05:56:11;;;;;;;8.10;4.30;;;17.20;99.90;;;;;;5013694;28;20197;-55
2022/08/10 05:58:37;;;;;;;8.48;5.22;;;17.30;99.90;;;;;;5012900;28;20033;-54
2022/08/10 06:01:06;;;;;;;7.80;4.97;;;17.40;99.90;;;;;;5013001;28;20044;-55
2022/08/10 06:03:52;;;;;;;9.68;4.70;;;17.40;99.90;;;;;;5013083;28;20026;-55
2022/08/10 06:06:20;;;;;;;7.32;4.80;;;17.50;99.90;;;;;;5012648;28;20029;-57
2022/08/10 06:08:48;;;;;;;7.88;5.18;;;17.60;99.90;;;;;;5016359;28;20025;-57
2022/08/10 06:11:15;;;;;;;8.73;4.53;;;17.70;99.90;;;;;;5013327;28;20022;-53
2022/08/10 06:16:31;;;;;;;9.15;4.53;;;17.80;99.90;;;;;;5008989;28;20080;-57
2022/08/10 06:18:58;;;;;;;8.38;5.03;;;17.90;99.90;;;;;;5011091;28;20026;-57
2022/08/10 06:21:23;;;;;;;11.52;4.78;;;18.00;99.90;;;;;;5011441;28;20659;-57
2022/08/10 06:23:51;;;;;;;8.30;4.15;;;18.10;99.90;;;;;;5016779;28;20030;-57
2022/08/10 06:26:17;;;;;;;6.85;4.18;;;18.30;99.90;;;;;;5011557;28;20451;-56
2022/08/10 06:29:10;;;;;;;12.32;3.80;;;18.40;99.90;;;;;;5009941;28;20034;-56
2022/08/10 06:31:40;;;;;;;13.23;4.40;;;18.50;99.90;;;;;;5006596;28;20388;-58
2022/08/10 06:34:09;;;;;;;8.20;4.53;;;18.60;99.90;;;;;;5012449;28;20029;-58
2022/08/10 06:36:36;;;;;;;12.45;4.43;;;18.70;99.90;;;;;;5007864;28;20034;-56
2022/08/10 06:39:03;;;;;;;7.93;4.55;;;18.80;99.90;;;;;;5011254;28;20092;-60
2022/08/10 06:41:32;;;;;;;6.65;3.70;;;18.90;99.90;;;;;;5011857;28;20033;-57
2022/08/10 06:44:08;;;;;;;11.10;4.20;;;19.00;99.90;;;;;;5010849;28;20017;-57
2022/08/10 06:46:38;;;;;;;5.95;3.80;;;19.10;99.90;;;;;;5009011;28;20033;-56
2022/08/10 06:49:06;;;;;;;12.90;4.25;;;19.20;99.90;;;;;;5010367;28;20018;-57
2022/08/10 06:51:34;;;;;;;7.07;4.20;;;19.30;99.90;;;;;;5009916;28;20030;-57
2022/08/10 06:54:09;;;;;;;8.80;4.15;;;19.50;99.90;;;;;;5017540;28;20030;-60
2022/08/10 06:56:40;;;;;;;9.18;4.03;;;19.60;99.90;;;;;;5008448;28;20508;-56
2022/08/10 06:59:26;;;;;;;6.65;4.00;;;19.70;99.90;;;;;;5010976;28;20510;-56
2022/08/10 07:02:08;;;;;;;11.55;4.32;;;19.80;99.90;;;;;;5006567;28;20480;-57
2022/08/10 07:04:41;;;;;;;7.88;4.00;;;19.90;99.90;;;;;;5008609;28;20041;-59
2022/08/10 07:07:08;;;;;;;7.32;3.58;;;20.00;99.90;;;;;;5007549;28;20037;-57
2022/08/10 07:09:36;;;;;;;6.63;3.33;;;20.10;99.90;;;;;;5010341;28;20487;-58
2022/08/10 07:12:04;;;;;;;5.85;3.65;;;20.20;99.90;;;;;;5011258;28;20014;-57
2022/08/10 07:14:30;;;;;;;6.55;3.40;;;20.30;99.90;;;;;;5009346;28;20048;-58
2022/08/10 07:16:57;;;;;;;6.30;3.60;;;20.40;99.90;;;;;;5007609;28;20025;-58
2022/08/10 07:19:24;;;;;;;9.65;3.78;;;20.50;99.90;;;;;;5008196;28;20097;-57
2022/08/10 07:21:51;;;;;;;6.45;3.45;;;20.60;99.90;;;;;;5009494;28;20492;-60
2022/08/10 07:24:17;;;;;;;4.75;3.58;;;20.70;99.90;;;;;;5010208;28;20025;-59
2022/08/10 07:26:49;;;;;;;10.45;3.92;;;20.70;99.90;;;;;;5010340;28;20038;-58
2022/08/10 07:29:17;;;;;;;9.10;3.30;;;20.80;99.90;;;;;;5010668;28;20064;-57
2022/08/10 07:31:44;;;;;;;5.97;3.35;;;20.90;99.90;;;;;;5010952;28;20029;-59
2022/08/10 07:34:13;;;;;;;5.88;3.50;;;21.00;99.90;;;;;;5010523;28;20472;-58
2022/08/10 07:36:40;;;;;;;8.73;3.88;;;21.10;99.90;;;;;;5010317;28;20030;-59
2022/08/10 07:39:08;;;;;;;5.20;3.33;;;21.20;99.90;;;;;;5010322;28;20041;-58
2022/08/10 07:41:38;;;;;;;10.75;2.95;;;21.40;99.90;;;;;;5010168;28;20104;-58
2022/08/10 07:44:05;;;;;;;4.57;3.35;;;21.50;99.90;;;;;;5010594;28;20018;-57
2022/08/10 07:46:33;;;;;;;6.10;3.30;;;21.60;99.90;;;;;;5009384;28;20073;-60
2022/08/10 07:49:06;;;;;;;8.32;3.30;;;21.60;99.90;;;;;;5010211;28;20030;-58
2022/08/10 07:51:32;;;;;;;11.43;3.17;;;21.70;99.90;;;;;;5011077;28;20106;-57
2022/08/10 07:54:04;;;;;;;5.10;3.45;;;21.70;99.90;;;;;;5010394;28;20026;-60
2022/08/10 07:56:32;;;;;;;6.35;3.40;;;21.80;99.90;;;;;;5010094;28;20160;-57
2022/08/10 07:59:09;;;;;;;8.82;3.20;;;21.90;99.90;;;;;;5010340;28;20041;-58
2022/08/10 08:01:40;;;;;;;8.85;4.00;;;22.00;99.90;;;;;;5010586;28;20611;-57
2022/08/10 08:04:11;;;;;;;5.75;3.45;;;22.10;99.90;;;;;;5010745;28;20030;-58
2022/08/10 08:06:38;;;;;;;6.55;3.67;;;22.20;99.90;;;;;;5014499;28;20025;-57
2022/08/10 08:09:04;;;;;;;7.53;3.80;;;22.30;99.90;;;;;;5010254;28;20033;-59
2022/08/10 08:11:31;;;;;;;5.38;3.42;;;22.50;99.90;;;;;;5013554;28;20101;-58
2022/08/10 08:13:59;;;;;;;4.80;3.40;;;22.60;99.90;;;;;;5014047;28;20018;-58
2022/08/10 08:16:25;;;;;;;6.32;2.97;;;22.70;99.90;;;;;;5014032;28;20605;-54
2022/08/10 08:18:53;;;;;;;10.57;3.20;;;22.70;99.90;;;;;;5014232;28;20061;-55
2022/08/10 08:21:19;;;;;;;9.63;3.40;;;22.70;99.90;;;;;;5013904;28;20087;-57
2022/08/10 08:23:46;;;;;;;4.85;3.50;;;22.80;99.90;;;;;;5013719;28;20026;-53
2022/08/10 08:26:13;;;;;;;6.35;3.72;;;22.90;99.90;;;;;;5013561;28;20040;-54
2022/08/10 08:28:40;;;;;;;5.90;3.03;;;23.00;99.90;;;;;;5013543;28;20033;-56
2022/08/10 08:31:06;;;;;;;7.97;3.40;;;23.10;99.90;;;;;;5014490;28;20026;-57
2022/08/10 08:33:33;;;;;;;6.32;3.17;;;23.20;99.90;;;;;;5013470;28;20026;-59
2022/08/10 08:35:59;;;;;;;6.88;3.30;;;23.40;99.90;;;;;;5013512;28;20428;-57
2022/08/10 08:38:26;;;;;;;7.97;3.13;;;23.40;99.90;;;;;;5014040;28;20420;-56
2022/08/10 08:41:24;;;;;;;8.52;3.35;;;23.60;99.90;;;;;;5013889;28;20034;-57
2022/08/10 08:43:52;;;;;;;8.73;3.45;;;23.70;99.90;;;;;;4973675;28;20034;-58
2022/08/10 08:46:27;;;;;;;6.38;3.38;;;23.90;99.90;;;;;;5013231;28;20033;-54
2022/08/10 08:49:27;;;;;;;7.13;3.35;;;23.90;99.90;;;;;;5013335;28;20029;-60
2022/08/10 08:52:06;;;;;;;4.63;2.97;;;23.90;99.90;;;;;;4995863;28;20018;-56
2022/08/10 08:55:04;;;;;;;4.05;2.78;;;24.10;99.90;;;;;;5013488;28;20127;-57
2022/08/10 08:57:50;;;;;;;5.65;3.05;;;24.20;99.90;;;;;;5012940;28;20022;-54
2022/08/10 09:00:27;;;;;;;5.82;3.40;;;24.30;99.90;;;;;;5013449;28;20504;-55
2022/08/10 09:03:30;;;;;;;10.45;3.38;;;24.40;99.90;;;;;;5015564;28;20547;-56
2022/08/10 09:06:21;;;;;;;5.55;2.95;;;24.60;99.90;;;;;;5012436;28;20484;-56
2022/08/10 09:09:24;;;;;;;3.47;2.50;;;24.70;99.90;;;;;;5008895;28;20484;-53
2022/08/10 09:12:18;;;;;;;4.32;3.03;;;24.80;99.90;;;;;;5010340;28;20028;-57
2022/08/10 09:15:10;;;;;;;8.75;3.03;;;25.00;99.90;;;;;;5007343;28;20025;-58
2022/08/10 09:17:53;;;;;;;4.00;2.75;;;25.10;99.90;;;;;;5012170;28;20080;-53
2022/08/10 09:20:33;;;;;;;11.17;3.30;;;25.20;99.90;;;;;;5012672;28;20032;-58
2022/08/10 09:23:38;;;;;;;6.85;4.63;;;25.40;99.90;;;;;;5010301;28;20112;-58
2022/08/10 09:26:13;;;;;;;7.47;4.28;;;25.60;99.90;;;;;;5004600;28;20034;-56
2022/08/10 09:28:41;;;;;;;6.20;3.33;;;25.70;99.90;;;;;;5009543;28;20476;-58
2022/08/10 09:31:12;;;;;;;6.93;3.53;;;25.70;99.90;;;;;;5009519;28;20055;-56
2022/08/10 09:34:05;;;;;;;3.58;3.22;;;25.60;99.90;;;;;;5010094;28;20032;-54
2022/08/10 09:37:02;;;;;;;4.50;2.53;;;25.70;99.90;;;;;;5008348;28;20029;-55
2022/08/10 09:39:46;;;;;;;5.95;2.78;;;25.80;99.90;;;;;;5006229;28;20034;-55
2022/08/10 09:42:39;;;;;;;7.80;2.55;;;26.00;99.90;;;;;;5008488;28;20068;-56
2022/08/10 09:45:18;;;;;;;6.65;3.00;;;26.20;99.90;;;;;;5012630;28;20050;-56
2022/08/10 09:48:17;;;;;;;4.85;2.88;;;26.40;99.90;;;;;;5028178;22;20081;-58
2022/08/10 09:51:08;;;;;;;6.70;3.00;;;26.50;99.90;;;;;;5015061;28;20417;-60
2022/08/10 09:53:47;;;;;;;3.85;2.58;;;26.70;99.90;;;;;;5012689;28;20614;-61
2022/08/10 09:56:31;;;;;;;4.90;2.60;;;27.00;99.90;;;;;;5012947;28;20029;-60
2022/08/10 09:59:27;;;;;;;5.00;3.22;;;27.30;99.90;;;;;;4995203;28;20031;-61
2022/08/10 10:02:02;;;;;;;5.30;2.60;;;27.60;99.90;;;;;;4993128;28;20045;-60
2022/08/10 10:04:45;;;;;;;7.35;2.75;;;28.00;99.90;;;;;;4992893;28;20053;-60
2022/08/10 10:07:20;;;;;;;9.23;3.00;;;28.10;99.50;;;;;;4998618;28;20101;-60
2022/08/10 10:10:20;;;;;;;7.20;2.53;;;28.20;99.90;;;;;;5001376;28;20034;-59
2022/08/10 10:12:55;;;;;;;8.55;3.20;;;28.20;98.70;;;;;;4993345;28;20064;-60
2022/08/10 10:15:36;;;;;;;4.18;2.97;;;28.10;97.30;;;;;;4993485;28;20018;-60
2022/08/10 10:18:02;;;;;;;9.68;3.60;;;28.40;99.00;;;;;;4992419;28;20034;-60
2022/08/10 10:20:27;;;;;;;9.48;3.20;;;28.60;98.20;;;;;;4992847;28;20097;-60
2022/08/10 10:23:15;;;;;;;6.43;2.60;;;28.80;97.20;;;;;;4992536;28;20023;-60
2022/08/10 10:25:57;;;;;;;4.75;2.70;;;29.10;95.20;;;;;;5004454;28;20495;-58
2022/08/10 10:28:49;;;;;;;7.85;2.95;;;29.30;94.60;;;;;;5011443;28;20117;-60
2022/08/10 10:31:47;;;;;;;5.55;3.15;;;29.40;96.00;;;;;;5011408;28;20029;-59
2022/08/10 10:34:36;;;;;;;7.15;3.53;;;29.60;93.80;;;;;;4980705;28;20042;-59
2022/08/10 10:37:05;;;;;;;4.43;2.55;;;29.70;92.20;;;;;;4992043;28;20018;-58
2022/08/10 10:39:32;;;;;;;3.90;2.45;;;29.50;91.80;;;;;;4998047;28;20037;-60
2022/08/10 10:42:28;;;;;;;4.47;2.97;;;29.30;92.20;;;;;;4992069;28;20031;-61
2022/08/10 10:45:25;;;;;;;5.60;2.70;;;29.60;91.70;;;;;;4998979;28;20871;-58
2022/08/10 10:48:12;;;;;;;4.43;2.60;;;29.60;90.90;;;;;;4997083;28;20487;-58
2022/08/10 10:51:12;;;;;;;4.47;3.10;;;30.00;90.70;;;;;;4999433;28;20485;-58
2022/08/10 10:54:12;;;;;;;9.15;2.65;;;30.10;89.40;;;;;;5005084;28;20462;-59
2022/08/10 10:56:48;;;;;;;3.70;2.92;;;30.70;89.50;;;;;;5001346;28;20033;-59
2022/08/10 11:00:08;;;;;;;2.95;2.40;;;30.60;87.10;;;;;;5005537;28;20522;-59
2022/08/10 11:02:50;;;;;;;4.28;2.40;;;30.70;86.80;;;;;;4946215;28;20509;-59
2022/08/10 11:05:59;;;;;;;12.48;2.83;;;31.20;84.60;;;;;;4947446;29;20114;-58
2022/08/10 11:08:29;;;;;;;6.63;2.60;;;31.30;84.60;;;;;;4991648;28;20087;-57
2022/08/10 11:11:06;;;;;;;2.78;2.33;;;31.20;86.00;;;;;;5003059;28;20470;-58
2022/08/10 11:13:39;;;;;;;3.50;2.00;;;31.00;81.50;;;;;;4994514;28;20031;-59
2022/08/10 11:16:07;;;;;;;8.50;2.50;;;31.20;78.20;;;;;;4999242;28;20017;-58
2022/08/10 11:18:51;;;;;;;2.65;2.45;;;31.20;76.80;;;;;;5003727;28;20018;-59
2022/08/10 11:22:11;;;;;;;3.03;2.42;;;31.30;84.70;;;;;;4998219;28;20490;-58
2022/08/10 11:24:37;;;;;;;7.13;2.47;;;31.90;81.90;;;;;;4928248;29;20052;-57
2022/08/10 11:27:18;;;;;;;3.65;2.25;;;32.00;80.50;;;;;;4927313;29;20035;-59
2022/08/10 11:30:01;;;;;;;6.32;2.38;;;32.20;73.10;;;;;;4974879;28;20504;-59
2022/08/10 11:32:50;;;;;;;6.72;2.13;;;31.90;74.30;;;;;;5004660;28;20053;-57
2022/08/10 11:35:48;;;;;;;3.08;1.75;;;31.70;71.50;;;;;;5001439;28;20596;-60
2022/08/10 11:38:40;;;;;;;5.05;2.60;;;31.70;76.50;;;;;;4998187;28;20049;-60
2022/08/10 11:41:45;;;;;;;2.85;2.13;;;32.10;76.10;;;;;;4998989;28;20619;-58
2022/08/10 11:44:19;;;;;;;4.05;2.40;;;32.60;74.20;;;;;;4992495;28;20081;-56
2022/08/10 11:47:01;;;;;;;7.65;2.05;;;32.40;68.80;;;;;;4999829;28;20023;-57
2022/08/10 11:49:32;;;;;;;4.20;2.60;;;32.40;69.30;;;;;;5006861;28;20037;-60
2022/08/10 11:52:10;;;;;;;2.50;2.28;;;32.10;72.30;;;;;;5001797;28;20026;-58
2022/08/10 11:54:42;;;;;;;2.38;1.83;;;32.10;68.40;;;;;;4997081;28;20046;-58
2022/08/10 11:57:10;;;;;;;7.13;2.10;;;32.10;71.70;;;;;;5001214;28;20037;-58
2022/08/10 11:59:56;;;;;;;3.30;2.28;;;32.10;75.10;;;;;;5001731;28;20088;-58
2022/08/10 12:02:33;;;;;;;5.75;2.50;;;32.50;70.70;;;;;;5007526;28;20392;-58
2022/08/10 12:05:07;;;;;;;3.58;2.00;;;32.70;67.90;;;;;;4994440;28;20148;-56
2022/08/10 12:07:38;;;;;;;2.38;2.10;;;33.10;68.70;;;;;;5000254;28;20165;-57
2022/08/10 12:10:04;;;;;;;3.70;1.95;;;33.30;66.50;;;;;;5005093;28;20029;-58
2022/08/10 12:12:35;;;;;;;3.13;2.17;;;33.30;63.70;;;;;;5002500;28;20041;-60
2022/08/10 12:15:07;;;;;;;4.78;2.65;;;33.30;70.90;;;;;;4994729;28;20027;-59
2022/08/10 12:17:41;;;;;;;3.25;2.20;;;33.40;69.40;;;;;;4982843;28;20064;-59
2022/08/10 12:20:15;;;;;;;3.55;2.22;;;33.70;65.70;;;;;;4992486;28;20536;-59
2022/08/10 12:22:56;;;;;;;2.30;2.10;;;33.50;67.50;;;;;;4999879;28;20033;-61
2022/08/10 12:25:37;;;;;;;2.80;2.28;;;33.20;67.20;;;;;;5005995;28;20044;-60
2022/08/10 12:28:30;;;;;;;2.50;2.30;;;33.60;67.50;;;;;;5002574;28;20600;-60
2022/08/10 12:31:00;;;;;;;3.33;2.33;;;33.40;65.30;;;;;;5005780;28;20057;-59
2022/08/10 12:33:33;;;;;;;8.82;2.53;;;33.50;63.40;;;;;;4993824;28;20083;-58
2022/08/10 12:36:10;;;;;;;4.00;2.45;;;33.80;61.00;;;;;;4994332;28;20081;-59
2022/08/10 12:38:48;;;;;;;3.92;2.28;;;33.10;63.60;;;;;;4981861;28;20121;-58
2022/08/10 12:41:23;;;;;;;5.03;2.17;;;33.30;62.70;;;;;;4995179;28;20093;-59
2022/08/10 12:43:57;;;;;;;2.20;2.00;;;33.50;61.40;;;;;;4997589;28;20113;-59
2022/08/10 12:46:34;;;;;;;8.90;2.03;;;33.70;65.30;;;;;;5000657;28;20041;-59
2022/08/10 12:49:27;;;;;;;4.03;2.33;;;34.10;60.40;;;;;;5000403;28;20066;-58
2022/08/10 12:52:01;;;;;;;5.35;1.92;;;34.10;63.70;;;;;;4997956;28;20041;-59
2022/08/10 12:54:32;;;;;;;2.58;2.22;;;33.70;68.00;;;;;;5011606;28;20034;-57
2022/08/10 12:57:06;;;;;;;8.98;2.25;;;33.90;61.10;;;;;;5002488;28;20519;-59
2022/08/10 12:59:34;;;;;;;;;;;34.00;61.70;;;;;;5002008;28;21845;-57
2022/08/10 13:02:01;;;;;;;3.35;1.95;;;34.20;59.40;;;;;;4998527;28;19909;-59
2022/08/10 13:04:33;;;;;;;8.55;2.25;;;33.80;63.20;;;;;;4989983;28;20579;-58
2022/08/10 13:07:01;;;;;;;3.50;2.50;;;33.90;63.80;;;;;;5000073;28;20492;-59
2022/08/10 13:09:29;;;;;;;2.60;2.40;;;34.00;67.30;;;;;;5003070;28;20046;-60
2022/08/10 13:12:04;;;;;;;7.10;2.33;;;34.10;66.10;;;;;;5005633;28;20037;-60
2022/08/10 13:15:06;;;;;;;3.90;2.67;;;33.70;63.20;;;;;;5006580;28;20054;-59
2022/08/10 13:17:34;;;;;;;7.80;2.40;;;34.30;64.10;;;;;;4939942;29;20027;-58
2022/08/10 13:20:26;;;;;;;4.63;2.13;;;34.40;62.40;;;;;;4987040;28;20035;-60
2022/08/10 13:22:55;;;;;;;4.65;2.83;;;33.60;63.40;;;;;;5004906;28;20091;-60